Time;durP1;ratioP1;P1;durP2;ratioP2;P2;SDS_P1;SDS_P2;PMS_P1;PMS_P2;Temp;Humidity;BMP_temperature;BMP_pressure;BME280_temperature;BME280_humidity;BME280_pressure;Samples;Min_cycle;Max_cycle;Signal;HPM_P1;HPM_P2
2021/09/18 00:01:04;;;;;;;5.57;2.40;;;14.40;99.90;;;;;;4857740;29;20118;-77
2021/09/18 00:03:30;;;;;;;7.82;2.75;;;14.40;99.90;;;;;;4856899;29;20422;-77
2021/09/18 00:05:56;;;;;;;6.28;2.40;;;14.10;99.90;;;;;;4837627;29;20057;-77
2021/09/18 00:08:22;;;;;;;6.10;2.58;;;14.40;99.90;;;;;;4841347;29;20422;-77
2021/09/18 00:10:48;;;;;;;6.78;2.85;;;14.40;99.90;;;;;;4841110;29;20041;-77
2021/09/18 00:13:14;;;;;;;4.72;2.63;;;14.40;99.90;;;;;;4857768;29;20057;-77
2021/09/18 00:15:40;;;;;;;6.95;2.67;;;14.40;99.90;;;;;;4858051;29;20410;-77
2021/09/18 00:18:06;;;;;;;9.05;2.63;;;14.40;99.90;;;;;;4840075;29;20052;-77
2021/09/18 00:20:32;;;;;;;8.60;2.60;;;14.40;99.90;;;;;;4856348;29;20045;-77
2021/09/18 00:22:59;;;;;;;6.30;2.17;;;14.40;99.90;;;;;;4854827;29;20069;-77
2021/09/18 00:25:26;;;;;;;5.35;2.28;;;14.40;99.90;;;;;;4856827;29;20045;-77
2021/09/18 00:27:51;;;;;;;6.18;2.33;;;14.40;99.90;;;;;;4855572;29;20503;-77
2021/09/18 00:30:17;;;;;;;4.50;1.90;;;14.40;99.90;;;;;;4856641;29;20036;-75
2021/09/18 00:32:43;;;;;;;5.22;1.70;;;14.50;99.90;;;;;;4840581;29;20050;-75
2021/09/18 00:35:09;;;;;;;4.07;1.77;;;14.70;99.90;;;;;;4856339;29;20049;-75
2021/09/18 00:37:35;;;;;;;5.50;1.60;;;14.50;99.90;;;;;;4840741;29;20075;-75
2021/09/18 00:40:02;;;;;;;3.80;1.63;;;14.50;99.90;;;;;;4854477;29;20120;-75
2021/09/18 00:42:28;;;;;;;3.63;1.63;;;14.60;99.90;;;;;;4840836;29;20443;-75
2021/09/18 00:44:56;;;;;;;3.55;1.50;;;14.50;99.90;;;;;;4825587;29;20109;-75
2021/09/18 00:47:22;;;;;;;4.63;1.42;;;14.50;99.90;;;;;;4857235;29;20029;-75
2021/09/18 00:49:47;;;;;;;3.92;1.40;;;14.60;99.90;;;;;;4855431;29;20478;-78
2021/09/18 00:52:19;;;;;;;3.25;1.55;;;14.50;99.90;;;;;;4857398;29;20049;-78
2021/09/18 00:54:49;;;;;;;4.18;1.63;;;14.60;99.90;;;;;;4859861;29;20129;-82
2021/09/18 00:57:16;;;;;;;8.32;1.80;;;14.50;99.90;;;;;;4859698;29;20093;-83
2021/09/18 00:59:43;;;;;;;3.33;1.73;;;14.50;99.90;;;;;;4860622;29;20057;-83
2021/09/18 01:02:10;;;;;;;6.05;1.90;;;14.50;99.90;;;;;;4860354;29;20471;-82
2021/09/18 01:04:36;;;;;;;3.20;1.92;;;14.50;99.90;;;;;;4859593;29;20045;-78
2021/09/18 01:07:04;;;;;;;5.03;2.00;;;14.50;99.90;;;;;;4859389;29;20049;-77
2021/09/18 01:09:30;;;;;;;7.68;2.45;;;14.20;99.90;;;;;;4860761;29;20106;-76
2021/09/18 01:11:56;;;;;;;6.07;2.17;;;14.50;99.90;;;;;;4844061;29;20076;-76
2021/09/18 01:14:22;;;;;;;5.53;1.98;;;14.50;99.90;;;;;;4858925;29;20068;-75
2021/09/18 01:16:47;;;;;;;5.30;2.28;;;14.50;99.90;;;;;;4858689;29;20045;-76
2021/09/18 01:19:14;;;;;;;4.57;2.17;;;14.50;99.90;;;;;;4860174;29;20049;-79
2021/09/18 01:21:39;;;;;;;5.20;2.10;;;14.40;99.90;;;;;;4859764;29;20410;-80
2021/09/18 01:24:05;;;;;;;7.63;2.38;;;14.40;99.90;;;;;;4859160;29;20118;-80
2021/09/18 01:26:32;;;;;;;5.63;2.90;;;14.40;99.90;;;;;;4860238;29;20081;-75
2021/09/18 01:28:59;;;;;;;9.20;2.85;;;14.40;99.90;;;;;;4858715;29;20372;-76
2021/09/18 01:31:25;;;;;;;8.18;2.90;;;14.40;99.90;;;;;;4860433;29;20498;-80
2021/09/18 01:33:51;;;;;;;4.85;2.40;;;14.60;99.90;;;;;;4860199;29;20053;-81
2021/09/18 01:36:17;;;;;;;5.97;2.75;;;14.40;99.90;;;;;;4828154;29;20125;-80
2021/09/18 01:38:43;;;;;;;6.32;2.55;;;14.40;99.90;;;;;;4844553;29;20041;-80
2021/09/18 01:41:09;;;;;;;7.50;3.10;;;14.30;99.90;;;;;;4844389;29;20088;-80
2021/09/18 01:43:34;;;;;;;4.00;2.63;;;14.30;99.90;;;;;;4858563;29;20053;-75
2021/09/18 01:46:00;;;;;;;8.00;3.20;;;14.30;99.90;;;;;;4841956;29;20144;-75
2021/09/18 01:48:26;;;;;;;7.55;2.80;;;14.30;99.90;;;;;;4859525;29;20050;-80
2021/09/18 01:50:55;;;;;;;5.13;2.42;;;14.30;99.90;;;;;;4843525;29;20101;-80
2021/09/18 01:53:23;;;;;;;6.05;2.63;;;14.10;99.90;;;;;;4858885;29;20056;-80
2021/09/18 01:55:50;;;;;;;6.63;2.90;;;14.30;99.90;;;;;;4858778;29;20054;-76
2021/09/18 01:58:16;;;;;;;6.03;2.97;;;14.20;99.90;;;;;;4858869;29;20481;-80
2021/09/18 02:00:50;;;;;;;4.38;2.47;;;14.20;99.90;;;;;;4859192;29;20049;-80
2021/09/18 02:03:16;;;;;;;6.68;3.08;;;14.20;99.90;;;;;;4855214;29;20061;-75
2021/09/18 02:05:42;;;;;;;6.60;2.55;;;14.20;99.90;;;;;;4859122;29;20704;-75
2021/09/18 02:08:08;;;;;;;5.80;2.92;;;14.20;99.90;;;;;;4843180;29;20049;-80
2021/09/18 02:10:34;;;;;;;7.03;3.47;;;14.20;99.90;;;;;;4861007;29;20181;-80
2021/09/18 02:13:02;;;;;;;7.78;3.22;;;14.20;99.90;;;;;;4859644;29;20069;-81
2021/09/18 02:15:28;;;;;;;10.55;2.92;;;14.20;99.90;;;;;;4858585;29;20482;-75
2021/09/18 02:17:58;;;;;;;8.38;3.08;;;14.20;99.90;;;;;;4858316;29;20061;-75
2021/09/18 02:20:27;;;;;;;8.55;3.10;;;14.20;99.90;;;;;;4859261;29;20053;-75
2021/09/18 02:22:53;;;;;;;8.52;2.97;;;14.20;99.90;;;;;;4858253;29;20081;-75
2021/09/18 02:25:19;;;;;;;8.43;2.80;;;14.20;99.90;;;;;;4857654;29;20463;-81
2021/09/18 02:27:47;;;;;;;6.60;3.03;;;14.40;99.90;;;;;;4859063;29;20037;-81
2021/09/18 02:30:16;;;;;;;8.13;3.00;;;14.30;99.90;;;;;;4858329;29;20482;-81
2021/09/18 02:32:43;;;;;;;6.90;3.22;;;14.30;99.90;;;;;;4857826;29;20040;-81
2021/09/18 02:35:12;;;;;;;4.45;2.83;;;14.30;99.90;;;;;;4857219;29;20529;-76
2021/09/18 02:37:40;;;;;;;6.57;2.88;;;14.30;99.90;;;;;;4858074;29;20501;-75
2021/09/18 02:40:09;;;;;;;6.43;3.00;;;14.30;99.90;;;;;;4858825;29;20037;-75
2021/09/18 02:42:38;;;;;;;6.65;3.17;;;14.30;99.90;;;;;;4858878;29;20062;-80
2021/09/18 02:45:05;;;;;;;8.90;3.30;;;14.30;99.90;;;;;;4857561;29;20490;-81
2021/09/18 02:47:31;;;;;;;6.38;2.90;;;14.30;99.90;;;;;;4857294;29;20042;-76
2021/09/18 02:49:57;;;;;;;5.50;2.92;;;14.30;99.90;;;;;;4855607;29;20073;-75
2021/09/18 02:52:23;;;;;;;8.52;2.88;;;14.30;99.90;;;;;;4857789;29;20037;-80
2021/09/18 02:54:48;;;;;;;7.63;3.10;;;14.30;99.90;;;;;;4841777;29;20042;-75
2021/09/18 02:57:14;;;;;;;9.07;3.08;;;14.30;99.90;;;;;;4858633;29;20041;-80
2021/09/18 02:59:40;;;;;;;6.15;3.15;;;14.30;99.90;;;;;;4858577;29;20443;-75
2021/09/18 03:02:06;;;;;;;4.28;2.80;;;14.30;99.90;;;;;;4841146;29;20049;-74
2021/09/18 03:04:32;;;;;;;5.07;2.80;;;14.30;99.90;;;;;;4858864;29;21414;-75
2021/09/18 03:06:59;;;;;;;6.82;3.45;;;14.60;99.90;;;;;;4855635;29;20046;-75
2021/09/18 03:09:25;;;;;;;6.55;3.13;;;14.30;99.90;;;;;;4858246;29;20076;-80
2021/09/18 03:11:51;;;;;;;6.47;2.85;;;14.30;99.90;;;;;;4841776;29;20048;-75
2021/09/18 03:14:17;;;;;;;9.27;3.15;;;14.30;99.90;;;;;;4858959;29;20033;-81
2021/09/18 03:16:43;;;;;;;4.15;2.63;;;14.40;99.90;;;;;;4840882;29;20448;-75
2021/09/18 03:19:09;;;;;;;5.15;3.00;;;14.30;99.90;;;;;;4857376;29;20038;-75
2021/09/18 03:21:35;;;;;;;4.88;2.88;;;14.30;99.90;;;;;;4856469;29;20037;-81
2021/09/18 03:24:01;;;;;;;5.25;3.40;;;14.30;99.90;;;;;;4856882;29;20045;-80
2021/09/18 03:26:26;;;;;;;6.10;3.42;;;14.30;99.90;;;;;;4856824;29;20406;-81
2021/09/18 03:28:52;;;;;;;8.75;3.28;;;14.30;99.90;;;;;;4857076;29;20049;-75
2021/09/18 03:31:21;;;;;;;7.55;3.20;;;14.30;99.90;;;;;;4858364;29;20624;-81
2021/09/18 03:33:47;;;;;;;3.97;2.95;;;14.30;99.90;;;;;;4856018;29;20042;-75
2021/09/18 03:36:13;;;;;;;4.72;3.17;;;14.30;99.90;;;;;;4840687;29;20502;-74
2021/09/18 03:38:39;;;;;;;6.38;3.40;;;14.20;99.90;;;;;;4848782;29;20084;-75
2021/09/18 03:41:04;;;;;;;11.00;3.72;;;14.30;99.90;;;;;;4839228;29;20513;-75
2021/09/18 03:43:30;;;;;;;7.82;3.92;;;14.20;99.90;;;;;;4841699;29;20060;-80
2021/09/18 03:45:56;;;;;;;4.30;3.60;;;14.20;99.90;;;;;;4856571;29;20072;-80
2021/09/18 03:48:23;;;;;;;7.10;3.75;;;14.20;99.90;;;;;;4852084;29;20112;-81
2021/09/18 03:50:49;;;;;;;10.68;4.10;;;14.20;99.90;;;;;;4841343;29;20053;-74
2021/09/18 03:53:15;;;;;;;7.55;4.13;;;14.20;99.90;;;;;;4856178;29;20044;-81
2021/09/18 03:55:41;;;;;;;5.88;3.83;;;14.20;99.90;;;;;;4842467;29;20045;-81
2021/09/18 03:58:07;;;;;;;6.22;4.07;;;14.20;99.90;;;;;;4842267;29;20041;-75
2021/09/18 04:00:33;;;;;;;7.18;4.15;;;14.10;99.90;;;;;;4856807;29;20065;-75
2021/09/18 04:02:59;;;;;;;5.30;3.53;;;14.10;99.90;;;;;;4841116;29;20622;-76
2021/09/18 04:05:25;;;;;;;6.43;3.63;;;14.00;99.90;;;;;;4856623;29;20047;-76
2021/09/18 04:07:50;;;;;;;6.95;3.72;;;14.00;99.90;;;;;;4857660;29;20043;-80
2021/09/18 04:10:17;;;;;;;5.22;3.90;;;14.00;99.90;;;;;;4858347;29;20121;-76
2021/09/18 04:12:43;;;;;;;10.15;3.78;;;13.90;99.90;;;;;;4858337;29;20037;-80
2021/09/18 04:15:09;;;;;;;11.90;5.63;;;13.90;99.90;;;;;;4857071;29;20431;-74
2021/09/18 04:17:35;;;;;;;10.98;7.55;;;13.90;99.90;;;;;;4856494;29;20474;-80
2021/09/18 04:20:01;;;;;;;9.85;7.38;;;13.80;99.90;;;;;;4841860;29;20042;-80
2021/09/18 04:22:27;;;;;;;11.05;7.93;;;13.80;99.90;;;;;;4856631;29;20045;-75
2021/09/18 04:24:53;;;;;;;9.63;7.55;;;14.50;99.90;;;;;;4855841;29;20037;-75
2021/09/18 04:27:18;;;;;;;11.73;8.27;;;13.80;99.90;;;;;;4857093;29;20058;-75
2021/09/18 04:29:47;;;;;;;10.80;7.80;;;13.90;99.90;;;;;;4857077;29;20042;-80
2021/09/18 04:32:13;;;;;;;11.40;6.40;;;13.70;99.90;;;;;;4857310;29;20490;-75
2021/09/18 04:34:38;;;;;;;8.80;6.30;;;13.70;99.90;;;;;;4857178;29;20038;-75
2021/09/18 04:37:04;;;;;;;10.45;6.57;;;13.70;99.90;;;;;;4857391;29;20060;-75
2021/09/18 04:39:30;;;;;;;6.35;4.78;;;13.70;99.90;;;;;;4857262;29;20038;-75
2021/09/18 04:41:56;;;;;;;6.47;4.30;;;13.70;99.90;;;;;;4855487;29;20033;-80
2021/09/18 04:44:21;;;;;;;7.55;4.18;;;13.60;99.90;;;;;;4841157;29;20048;-81
2021/09/18 04:46:47;;;;;;;4.95;3.78;;;13.60;99.90;;;;;;4840800;29;20046;-80
2021/09/18 04:49:13;;;;;;;4.72;3.38;;;13.60;99.90;;;;;;4857275;29;20764;-81
2021/09/18 04:51:39;;;;;;;6.07;3.60;;;13.60;99.90;;;;;;4857532;29;20372;-80
2021/09/18 04:54:05;;;;;;;6.10;4.05;;;13.60;99.90;;;;;;4859563;29;20479;-81
2021/09/18 04:56:33;;;;;;;5.60;3.75;;;13.70;99.90;;;;;;4858465;29;20041;-80
2021/09/18 04:59:01;;;;;;;7.97;4.15;;;13.70;99.90;;;;;;4859092;29;20041;-80
2021/09/18 05:01:27;;;;;;;6.95;4.35;;;13.70;99.90;;;;;;4856179;29;20093;-75
2021/09/18 05:03:53;;;;;;;6.72;4.35;;;13.70;99.90;;;;;;4855751;29;20483;-75
2021/09/18 05:06:18;;;;;;;7.95;4.18;;;13.70;99.90;;;;;;4839936;29;20096;-75
2021/09/18 05:08:44;;;;;;;9.45;4.13;;;13.80;99.90;;;;;;4856617;29;20410;-75
2021/09/18 05:11:10;;;;;;;8.73;4.32;;;13.80;99.90;;;;;;4855716;29;20445;-75
2021/09/18 05:13:36;;;;;;;7.47;4.10;;;13.80;99.90;;;;;;4854433;29;20042;-75
2021/09/18 05:16:01;;;;;;;7.53;4.45;;;14.20;99.90;;;;;;4840100;29;20384;-75
2021/09/18 05:18:30;;;;;;;9.40;4.60;;;13.80;99.90;;;;;;4857222;29;20534;-75
2021/09/18 05:20:56;;;;;;;6.00;4.20;;;13.80;99.90;;;;;;4840599;29;20515;-75
2021/09/18 05:23:22;;;;;;;11.35;4.88;;;13.80;99.90;;;;;;4855962;29;20088;-79
2021/09/18 05:25:48;;;;;;;6.68;4.85;;;13.90;99.90;;;;;;4855488;29;20245;-79
2021/09/18 05:28:13;;;;;;;10.20;5.30;;;13.90;99.90;;;;;;4855603;29;20038;-79
2021/09/18 05:30:39;;;;;;;7.75;5.28;;;13.90;99.90;;;;;;4853428;29;20076;-79
2021/09/18 05:33:05;;;;;;;8.27;5.03;;;13.90;99.90;;;;;;4856699;29;20089;-75
2021/09/18 05:35:30;;;;;;;8.68;4.05;;;14.10;99.90;;;;;;4839984;29;20487;-75
2021/09/18 05:37:56;;;;;;;5.75;3.75;;;13.90;99.90;;;;;;4855753;29;20049;-75
2021/09/18 05:40:24;;;;;;;4.53;3.40;;;14.30;99.90;;;;;;4855794;29;20037;-79
2021/09/18 05:42:51;;;;;;;5.95;3.40;;;14.00;99.90;;;;;;4858510;29;20417;-79
2021/09/18 05:45:23;;;;;;;9.30;2.90;;;14.00;99.90;;;;;;4843591;29;20104;-79
2021/09/18 05:47:49;;;;;;;6.28;3.20;;;14.00;99.90;;;;;;4842557;29;20497;-80
2021/09/18 05:50:14;;;;;;;6.03;2.80;;;14.00;99.90;;;;;;4858325;29;20057;-79
2021/09/18 05:52:43;;;;;;;4.55;2.90;;;14.00;99.90;;;;;;4842868;29;20054;-80
2021/09/18 05:55:09;;;;;;;5.05;2.78;;;14.00;99.90;;;;;;4858598;29;20034;-80
2021/09/18 05:57:35;;;;;;;10.35;3.10;;;14.00;99.90;;;;;;4843497;29;20044;-80
2021/09/18 06:00:01;;;;;;;9.40;3.08;;;14.00;99.90;;;;;;4858824;29;20069;-80
2021/09/18 06:02:30;;;;;;;6.65;2.95;;;14.00;99.90;;;;;;4844254;29;20061;-80
2021/09/18 06:04:56;;;;;;;4.57;2.72;;;14.00;99.90;;;;;;4842974;29;20046;-80
2021/09/18 06:07:22;;;;;;;7.15;2.75;;;14.10;99.90;;;;;;4843482;29;20045;-80
2021/09/18 06:09:48;;;;;;;3.85;2.58;;;14.10;99.90;;;;;;4843531;29;20034;-80
2021/09/18 06:12:13;;;;;;;6.60;2.80;;;14.10;99.90;;;;;;4859670;29;20037;-80
2021/09/18 06:14:40;;;;;;;5.60;2.55;;;14.20;99.90;;;;;;4828154;29;20042;-80
2021/09/18 06:17:06;;;;;;;5.15;2.80;;;14.10;99.90;;;;;;4842687;29;20071;-80
2021/09/18 06:19:32;;;;;;;4.00;2.90;;;14.10;99.90;;;;;;4879814;29;20045;-82
2021/09/18 06:21:57;;;;;;;5.78;2.58;;;14.10;99.90;;;;;;4859388;29;20113;-83
2021/09/18 06:24:23;;;;;;;3.30;2.70;;;14.70;99.90;;;;;;4858516;29;20063;-81
2021/09/18 06:26:50;;;;;;;4.63;2.60;;;14.10;99.90;;;;;;4858576;29;20045;-81
2021/09/18 06:29:16;;;;;;;6.68;2.80;;;14.20;99.90;;;;;;4843544;29;20097;-80
2021/09/18 06:31:41;;;;;;;5.43;2.92;;;14.10;99.90;;;;;;4858485;29;20049;-80
2021/09/18 06:34:07;;;;;;;4.35;2.53;;;14.10;99.90;;;;;;4858967;29;20049;-80
2021/09/18 06:36:33;;;;;;;4.22;2.60;;;14.20;99.90;;;;;;4859599;29;20064;-81
2021/09/18 06:38:58;;;;;;;8.65;3.13;;;14.20;99.90;;;;;;4858289;29;20052;-80
2021/09/18 06:41:24;;;;;;;4.60;2.50;;;14.20;99.90;;;;;;4858205;29;20042;-80
2021/09/18 06:43:50;;;;;;;8.45;3.60;;;14.20;99.90;;;;;;4858727;29;20045;-81
2021/09/18 06:46:16;;;;;;;6.93;3.53;;;14.20;99.90;;;;;;4843041;29;20053;-80
2021/09/18 06:48:44;;;;;;;7.07;3.58;;;14.20;99.90;;;;;;4858943;29;20045;-81
2021/09/18 06:51:10;;;;;;;5.38;3.70;;;14.20;99.90;;;;;;4857927;29;20406;-80
2021/09/18 06:53:35;;;;;;;6.45;3.97;;;14.20;99.90;;;;;;4857246;29;20041;-80
2021/09/18 06:56:01;;;;;;;7.50;4.03;;;14.30;99.90;;;;;;4859619;29;20049;-80
2021/09/18 06:58:27;;;;;;;6.80;4.15;;;14.30;99.90;;;;;;4856479;29;20049;-80
2021/09/18 07:00:53;;;;;;;9.73;4.05;;;14.30;99.90;;;;;;4841815;29;20072;-80
2021/09/18 07:03:19;;;;;;;10.40;4.15;;;14.30;99.90;;;;;;4857676;29;20436;-81
2021/09/18 07:05:44;;;;;;;9.05;3.83;;;14.40;99.90;;;;;;4858293;29;20045;-81
2021/09/18 07:08:10;;;;;;;9.13;3.60;;;14.40;99.90;;;;;;4858184;29;20068;-81
2021/09/18 07:10:39;;;;;;;9.90;3.45;;;14.40;99.90;;;;;;4857789;29;20117;-81
2021/09/18 07:13:04;;;;;;;6.45;3.15;;;14.50;99.90;;;;;;4840321;29;20121;-80
2021/09/18 07:15:30;;;;;;;5.07;3.03;;;14.50;99.90;;;;;;4857047;29;20124;-81
2021/09/18 07:17:56;;;;;;;8.88;3.03;;;14.50;99.90;;;;;;4842976;29;20395;-81
2021/09/18 07:20:25;;;;;;;4.88;2.70;;;14.60;99.90;;;;;;4841275;29;20098;-81
2021/09/18 07:22:51;;;;;;;8.00;2.65;;;14.60;99.90;;;;;;4858127;29;20085;-83
2021/09/18 07:25:17;;;;;;;4.93;2.50;;;14.60;99.90;;;;;;4857080;29;20557;-83
2021/09/18 07:27:43;;;;;;;6.18;2.90;;;14.70;99.90;;;;;;4840710;29;20125;-81
2021/09/18 07:30:09;;;;;;;5.47;3.28;;;14.70;99.90;;;;;;4858578;29;20563;-82
2021/09/18 07:32:35;;;;;;;6.35;3.22;;;14.60;99.90;;;;;;4855874;29;20099;-83
2021/09/18 07:35:07;;;;;;;7.03;2.70;;;14.70;99.90;;;;;;4856647;29;20045;-81
2021/09/18 07:37:37;;;;;;;6.00;2.60;;;14.70;99.90;;;;;;4825487;29;20080;-80
2021/09/18 07:40:07;;;;;;;7.15;2.47;;;14.70;99.90;;;;;;4840308;29;20109;-81
2021/09/18 07:42:34;;;;;;;4.78;2.65;;;14.80;99.90;;;;;;4857427;29;20405;-88
2021/09/18 07:44:59;;;;;;;4.05;2.17;;;14.80;99.90;;;;;;4856776;29;20048;-71
2021/09/18 07:47:25;;;;;;;3.47;2.13;;;14.80;99.90;;;;;;4856584;29;20402;-70
2021/09/18 07:49:51;;;;;;;4.30;2.22;;;15.00;99.90;;;;;;4857928;29;20041;-71
2021/09/18 07:52:17;;;;;;;3.30;2.10;;;14.90;99.90;;;;;;4841347;29;20056;-70
2021/09/18 07:54:43;;;;;;;4.63;2.28;;;15.00;99.90;;;;;;4853573;29;20046;-71
2021/09/18 07:57:10;;;;;;;4.72;2.10;;;15.00;99.90;;;;;;4840308;29;20052;-73
2021/09/18 07:59:36;;;;;;;5.63;1.90;;;15.00;99.90;;;;;;4856416;29;20460;-78
2021/09/18 08:02:01;;;;;;;6.28;1.98;;;15.00;99.90;;;;;;4856182;29;20052;-80
2021/09/18 08:04:28;;;;;;;4.85;2.13;;;15.10;99.90;;;;;;4857436;29;20053;-80
2021/09/18 08:06:54;;;;;;;3.90;1.88;;;15.10;99.90;;;;;;4856721;29;20041;-80
2021/09/18 08:09:23;;;;;;;5.13;1.90;;;15.10;99.90;;;;;;4840111;29;20471;-82
2021/09/18 08:11:51;;;;;;;9.00;2.20;;;15.20;99.90;;;;;;4838547;29;20456;-79
2021/09/18 08:14:17;;;;;;;7.53;2.45;;;15.20;99.90;;;;;;4841340;29;20042;-80
2021/09/18 08:16:43;;;;;;;4.72;2.28;;;15.20;99.90;;;;;;4840702;29;20479;-81
2021/09/18 08:19:11;;;;;;;10.82;2.28;;;15.20;99.90;;;;;;4856323;29;20095;-79
2021/09/18 08:21:37;;;;;;;6.60;2.10;;;15.30;99.90;;;;;;4855296;29;20057;-80
2021/09/18 08:24:06;;;;;;;4.90;2.13;;;15.40;99.90;;;;;;4856924;29;20058;-81
2021/09/18 08:26:32;;;;;;;5.55;2.05;;;15.40;99.90;;;;;;4837379;29;20064;-81
2021/09/18 08:28:59;;;;;;;6.00;2.10;;;15.40;99.90;;;;;;4857381;29;20399;-80
2021/09/18 08:31:27;;;;;;;11.77;2.33;;;15.50;99.90;;;;;;4825654;29;20075;-81
2021/09/18 08:33:53;;;;;;;5.10;2.20;;;15.50;99.90;;;;;;4839728;29;20190;-79
2021/09/18 08:36:20;;;;;;;3.20;1.83;;;15.60;99.90;;;;;;4856213;29;21560;-79
2021/09/18 08:38:46;;;;;;;3.88;1.90;;;15.60;99.90;;;;;;4855195;29;20050;-83
2021/09/18 08:41:13;;;;;;;5.18;1.90;;;15.60;99.90;;;;;;4853678;29;20049;-78
2021/09/18 08:43:41;;;;;;;4.65;1.85;;;15.70;99.90;;;;;;4857091;29;20053;-76
2021/09/18 08:46:08;;;;;;;6.03;1.63;;;15.70;99.90;;;;;;4857563;29;20053;-81
2021/09/18 08:48:38;;;;;;;3.97;1.90;;;15.80;99.90;;;;;;4853397;29;20037;-75
2021/09/18 08:51:04;;;;;;;5.55;1.75;;;15.80;99.90;;;;;;4858728;29;20053;-75
2021/09/18 08:53:29;;;;;;;6.10;1.63;;;15.80;99.90;;;;;;4842595;29;20053;-75
2021/09/18 08:55:57;;;;;;;3.85;1.50;;;15.80;99.90;;;;;;4843819;29;20428;-74
2021/09/18 08:58:24;;;;;;;5.32;1.70;;;15.80;99.90;;;;;;4858140;29;20145;-75
2021/09/18 09:00:52;;;;;;;5.78;2.05;;;15.90;99.90;;;;;;4857675;29;20505;-74
2021/09/18 09:03:28;;;;;;;5.15;1.90;;;15.90;99.90;;;;;;4856435;29;20041;-75
2021/09/18 09:06:19;;;;;;;4.85;1.65;;;16.00;99.90;;;;;;4835538;29;20061;-74
2021/09/18 09:08:55;;;;;;;5.05;1.83;;;16.00;99.90;;;;;;4840064;29;20060;-83
2021/09/18 09:11:23;;;;;;;4.60;2.00;;;16.10;99.90;;;;;;4854158;29;20042;-83
2021/09/18 09:13:54;;;;;;;4.40;2.00;;;16.10;99.90;;;;;;4853641;29;20041;-83
2021/09/18 09:16:21;;;;;;;7.72;2.13;;;16.10;99.90;;;;;;4853005;29;20098;-82
2021/09/18 09:18:47;;;;;;;9.63;2.47;;;16.20;99.90;;;;;;4857360;29;20045;-78
2021/09/18 09:21:33;;;;;;;7.07;1.80;;;16.20;99.90;;;;;;4859524;29;20108;-76
2021/09/18 09:24:05;;;;;;;;;;;16.30;99.90;;;;;;4849448;29;20506;-76
2021/09/18 09:26:36;;;;;;;4.07;1.48;;;16.30;99.90;;;;;;4845612;29;19928;-85
2021/09/18 09:29:05;;;;;;;3.67;1.58;;;16.30;99.90;;;;;;4859564;29;20046;-85
2021/09/18 09:31:38;;;;;;;3.97;1.95;;;16.40;99.90;;;;;;4847084;29;20125;-86
2021/09/18 09:34:15;;;;;;;5.90;1.88;;;16.30;99.90;;;;;;4844314;29;20085;-86
2021/09/18 09:36:49;;;;;;;6.47;2.05;;;16.30;99.90;;;;;;4847312;29;20076;-86
2021/09/18 09:39:18;;;;;;;7.15;2.35;;;16.30;99.90;;;;;;4847103;29;20045;-86
2021/09/18 09:41:55;;;;;;;4.35;2.05;;;16.50;99.90;;;;;;4862430;29;20088;-86
2021/09/18 09:44:32;;;;;;;5.10;2.50;;;16.40;99.90;;;;;;4846699;29;20041;-86
2021/09/18 09:47:10;;;;;;;4.43;2.40;;;16.30;99.90;;;;;;4862287;29;20045;-86
2021/09/18 09:49:49;;;;;;;9.05;2.25;;;16.50;99.90;;;;;;4861257;29;20506;-85
2021/09/18 09:52:31;;;;;;;6.82;2.33;;;16.50;99.90;;;;;;4863371;29;20045;-86
2021/09/18 09:55:06;;;;;;;4.15;2.20;;;16.50;99.90;;;;;;4854407;29;20034;-86
2021/09/18 09:57:36;;;;;;;6.13;2.50;;;16.50;99.90;;;;;;4835918;29;20085;-86
2021/09/18 10:00:13;;;;;;;6.15;2.42;;;16.60;99.90;;;;;;4852851;29;20504;-86
2021/09/18 10:02:43;;;;;;;5.70;2.10;;;16.70;99.90;;;;;;4862225;29;20545;-86
2021/09/18 10:05:15;;;;;;;6.80;2.35;;;16.70;99.90;;;;;;4845817;29;20080;-86
2021/09/18 10:07:42;;;;;;;7.95;2.33;;;16.70;99.90;;;;;;4846462;29;20049;-86
2021/09/18 10:10:20;;;;;;;5.32;2.30;;;16.70;99.90;;;;;;4846697;29;20113;-86
2021/09/18 10:12:49;;;;;;;4.38;1.88;;;16.80;99.90;;;;;;4846640;29;20041;-86
2021/09/18 10:15:38;;;;;;;6.32;1.88;;;16.70;99.90;;;;;;4860847;29;20046;-86
2021/09/18 10:18:10;;;;;;;4.82;1.73;;;16.80;99.90;;;;;;4861889;29;20104;-86
2021/09/18 10:23:36;;;;;;;4.50;2.40;;;16.80;99.90;;;;;;4853326;29;20517;-86
2021/09/18 10:26:24;;;;;;;6.78;2.00;;;16.90;99.90;;;;;;4834935;29;20482;-87
2021/09/18 10:29:00;;;;;;;4.53;1.70;;;16.90;99.90;;;;;;4845946;29;20061;-86
2021/09/18 10:31:29;;;;;;;2.70;1.20;;;17.00;99.90;;;;;;4846445;29;20038;-86
2021/09/18 10:34:17;;;;;;;4.07;1.42;;;17.00;99.90;;;;;;4845871;29;20052;-86
2021/09/18 10:36:43;;;;;;;4.57;1.45;;;17.10;99.90;;;;;;4835198;29;20046;-86
2021/09/18 10:39:18;;;;;;;4.40;1.48;;;17.10;99.90;;;;;;4844713;29;20061;-86
2021/09/18 10:41:47;;;;;;;3.83;1.20;;;16.90;99.90;;;;;;4845679;29;20049;-86
2021/09/18 10:44:15;;;;;;;2.67;1.40;;;17.10;99.90;;;;;;4860907;29;20078;-86
2021/09/18 10:46:44;;;;;;;4.22;1.55;;;17.20;99.90;;;;;;4845983;29;20049;-87
2021/09/18 10:49:43;;;;;;;4.97;1.50;;;17.20;99.90;;;;;;4849875;29;20178;-86
2021/09/18 10:52:29;;;;;;;2.90;1.50;;;17.20;99.90;;;;;;4826306;29;20076;-86
2021/09/18 10:55:08;;;;;;;4.22;1.73;;;17.20;99.90;;;;;;4845423;29;20037;-86
2021/09/18 10:57:48;;;;;;;4.97;2.13;;;17.30;99.90;;;;;;4849659;29;20417;-86
2021/09/18 11:00:20;;;;;;;5.55;1.90;;;17.30;99.90;;;;;;4847109;29;20586;-86
2021/09/18 11:03:01;;;;;;;3.78;1.88;;;17.30;99.90;;;;;;4846242;29;20137;-86
2021/09/18 11:05:27;;;;;;;4.00;1.60;;;17.40;99.90;;;;;;4860933;29;20054;-86
2021/09/18 11:08:01;;;;;;;3.83;1.80;;;17.40;99.90;;;;;;4860400;29;20042;-86
2021/09/18 11:10:27;;;;;;;3.65;1.60;;;17.50;99.90;;;;;;4860688;29;20053;-86
2021/09/18 11:13:14;;;;;;;4.22;1.52;;;17.50;99.90;;;;;;4853908;29;20050;-86
2021/09/18 11:15:46;;;;;;;4.82;1.92;;;17.60;99.90;;;;;;4848519;29;20046;-86
2021/09/18 11:18:49;;;;;;;;;;;;;;;;;;;;;
2021/09/18 11:21:35;;;;;;;4.10;1.85;;;17.60;99.90;;;;;;4852624;29;20049;-86
2021/09/18 11:24:16;;;;;;;4.82;1.75;;;17.40;99.90;;;;;;4860701;29;20048;-86
2021/09/18 11:26:57;;;;;;;4.70;2.00;;;17.70;99.90;;;;;;4844092;29;20052;-86
2021/09/18 11:29:33;;;;;;;3.88;1.50;;;17.70;99.90;;;;;;4861408;29;20402;-86
2021/09/18 11:32:18;;;;;;;6.43;2.40;;;17.80;99.90;;;;;;4858490;29;20057;-86
2021/09/18 11:35:00;;;;;;;5.32;2.28;;;17.80;99.90;;;;;;4844256;29;20451;-86
2021/09/18 11:37:32;;;;;;;5.72;2.38;;;17.80;99.90;;;;;;4831007;29;20144;-86
2021/09/18 11:40:07;;;;;;;6.95;1.85;;;17.80;99.90;;;;;;4860542;29;20121;-86
2021/09/18 11:42:37;;;;;;;4.57;2.10;;;17.80;99.90;;;;;;4860349;29;20436;-86
2021/09/18 11:45:08;;;;;;;3.30;1.90;;;17.80;99.90;;;;;;4858859;29;20046;-86
2021/09/18 11:47:52;;;;;;;6.60;2.20;;;17.80;99.90;;;;;;4859426;29;20078;-86
2021/09/18 11:50:41;;;;;;;4.20;1.70;;;17.80;99.90;;;;;;4860115;29;20521;-87
2021/09/18 11:53:13;;;;;;;3.25;1.65;;;17.80;99.90;;;;;;4860846;29;20045;-87
2021/09/18 11:55:40;;;;;;;4.30;1.77;;;17.90;99.90;;;;;;4861404;29;20443;-86
2021/09/18 11:58:25;;;;;;;5.38;2.35;;;17.30;99.90;;;;;;4861094;29;20370;-87
2021/09/18 12:00:53;;;;;;;4.10;1.90;;;18.00;99.90;;;;;;4859051;29;20061;-87
2021/09/18 12:03:44;;;;;;;6.57;2.17;;;18.00;99.90;;;;;;4844421;29;20081;-86
2021/09/18 12:06:13;;;;;;;3.92;2.35;;;18.00;99.90;;;;;;4859947;29;20068;-86
2021/09/18 12:08:42;;;;;;;5.07;2.33;;;18.10;99.90;;;;;;4844511;29;20434;-87
2021/09/18 12:11:07;;;;;;;5.03;2.72;;;18.10;99.90;;;;;;4844589;29;20121;-87
2021/09/18 12:13:39;;;;;;;4.15;2.70;;;18.20;99.90;;;;;;4856484;29;20124;-86
2021/09/18 12:16:06;;;;;;;3.83;2.97;;;18.10;99.90;;;;;;4859866;29;20049;-87
2021/09/18 12:18:35;;;;;;;3.17;2.60;;;18.20;99.90;;;;;;4854166;29;20113;-86
2021/09/18 12:21:24;;;;;;;6.07;3.00;;;18.20;99.90;;;;;;4860192;29;20105;-86
2021/09/18 12:24:13;;;;;;;5.57;3.25;;;18.30;99.90;;;;;;4859402;29;20041;-87
2021/09/18 12:26:41;;;;;;;4.25;3.42;;;18.30;99.90;;;;;;4857433;29;20053;-88
2021/09/18 12:29:10;;;;;;;7.18;3.88;;;18.40;99.90;;;;;;4855904;29;20045;-86
2021/09/18 12:31:42;;;;;;;5.50;3.35;;;18.40;99.90;;;;;;4859965;29;20049;-87
2021/09/18 12:34:17;;;;;;;4.93;4.00;;;18.40;99.90;;;;;;4843794;29;20085;-86
2021/09/18 12:36:44;;;;;;;6.30;4.00;;;18.50;99.90;;;;;;4841498;29;20042;-87
2021/09/18 12:39:11;;;;;;;5.38;3.78;;;18.40;99.90;;;;;;4833397;29;20043;-87
2021/09/18 12:41:40;;;;;;;4.82;3.30;;;18.40;99.90;;;;;;4836395;29;20108;-87
2021/09/18 12:44:08;;;;;;;4.85;3.67;;;18.30;99.90;;;;;;4852765;29;20460;-87
2021/09/18 12:46:48;;;;;;;4.18;3.30;;;18.40;99.90;;;;;;4859326;29;20491;-87
2021/09/18 12:49:15;;;;;;;5.53;2.97;;;18.30;99.90;;;;;;4856321;29;20041;-87
2021/09/18 12:51:44;;;;;;;4.63;2.80;;;18.40;99.90;;;;;;4834428;29;20055;-87
2021/09/18 12:54:18;;;;;;;6.95;2.58;;;18.50;99.90;;;;;;4850337;29;20109;-87
2021/09/18 12:56:49;;;;;;;3.08;1.92;;;18.50;99.90;;;;;;4849194;29;20525;-87
2021/09/18 12:59:17;;;;;;;3.72;1.85;;;18.50;99.90;;;;;;4849520;29;20093;-88